Time;durP1;ratioP1;P1;durP2;ratioP2;P2;SDS_P1;SDS_P2;PMS_P1;PMS_P2;Temp;Humidity;BMP_temperature;BMP_pressure;BME280_temperature;BME280_humidity;BME280_pressure;Samples;Min_cycle;Max_cycle;Signal;HPM_P1;HPM_P2
2021/10/16 00:01:04;;;;;;;10.53;1.93;;;9.30;99.90;;;;;;5103510;28;20200;-51
2021/10/16 00:03:32;;;;;;;7.77;1.67;;;9.20;99.90;;;;;;5107602;27;20216;-55
2021/10/16 00:05:59;;;;;;;5.23;1.57;;;9.20;99.90;;;;;;5117895;27;20587;-52
2021/10/16 00:08:25;;;;;;;7.83;1.70;;;9.20;99.90;;;;;;5094637;27;20209;-49
2021/10/16 00:10:52;;;;;;;5.03;1.60;;;9.20;99.90;;;;;;5100198;27;20193;-46
2021/10/16 00:13:18;;;;;;;8.57;1.53;;;9.20;99.90;;;;;;5103189;27;20208;-50
2021/10/16 00:15:45;;;;;;;6.63;1.47;;;9.20;99.90;;;;;;5096675;27;20205;-56
2021/10/16 00:18:11;;;;;;;7.43;1.67;;;9.20;99.90;;;;;;5106310;28;20216;-49
2021/10/16 00:20:40;;;;;;;10.43;1.90;;;9.20;99.90;;;;;;5108878;28;20220;-49
2021/10/16 00:23:07;;;;;;;3.73;1.33;;;9.20;99.90;;;;;;5101925;28;20566;-53
2021/10/16 00:25:33;;;;;;;10.63;1.97;;;9.20;99.90;;;;;;5097225;27;20229;-47
2021/10/16 00:28:00;;;;;;;6.97;1.53;;;9.20;99.90;;;;;;5103352;28;20197;-49
2021/10/16 00:30:27;;;;;;;3.43;1.40;;;9.20;99.90;;;;;;5087716;27;20228;-49
2021/10/16 00:32:53;;;;;;;4.73;1.47;;;9.30;99.90;;;;;;5103486;27;20194;-50
2021/10/16 00:35:20;;;;;;;6.07;1.63;;;9.30;99.90;;;;;;5099702;28;20368;-49
2021/10/16 00:37:48;;;;;;;5.33;1.70;;;9.20;99.90;;;;;;5098691;28;20651;-54
2021/10/16 00:40:15;;;;;;;4.50;1.10;;;9.20;99.90;;;;;;5100960;28;20208;-51
2021/10/16 00:42:46;;;;;;;8.97;1.57;;;9.20;99.90;;;;;;5099877;28;20209;-51
2021/10/16 00:45:13;;;;;;;7.10;1.93;;;9.20;99.90;;;;;;5093511;27;20220;-58
2021/10/16 00:47:39;;;;;;;8.30;1.97;;;9.20;99.90;;;;;;5103251;27;20197;-51
2021/10/16 00:50:07;;;;;;;12.23;1.83;;;9.30;99.90;;;;;;5102492;28;20197;-55
2021/10/16 00:52:35;;;;;;;8.50;1.60;;;9.30;99.90;;;;;;5090041;28;20201;-48
2021/10/16 00:55:03;;;;;;;5.73;1.53;;;9.30;99.90;;;;;;5101922;28;20236;-52
2021/10/16 00:57:32;;;;;;;4.70;1.20;;;9.30;99.90;;;;;;5096112;27;20225;-52
2021/10/16 00:59:59;;;;;;;8.17;2.13;;;9.30;99.90;;;;;;5107622;28;20197;-52
2021/10/16 01:02:25;;;;;;;5.87;1.63;;;9.20;99.90;;;;;;5088056;28;20197;-45
2021/10/16 01:04:52;;;;;;;4.57;1.50;;;9.20;99.90;;;;;;5106246;27;20236;-52
2021/10/16 01:07:20;;;;;;;4.37;1.30;;;9.20;99.90;;;;;;5099679;27;20197;-48
2021/10/16 01:09:47;;;;;;;4.80;1.90;;;9.30;99.90;;;;;;5098765;28;20594;-50
2021/10/16 01:12:16;;;;;;;3.50;1.30;;;9.30;99.90;;;;;;5100477;28;20201;-48
2021/10/16 01:14:46;;;;;;;9.20;1.63;;;9.20;99.90;;;;;;5097355;28;20221;-47
2021/10/16 01:17:14;;;;;;;5.93;1.07;;;9.30;99.90;;;;;;5086201;28;20751;-49
2021/10/16 01:19:42;;;;;;;6.07;1.83;;;9.20;99.90;;;;;;5102536;28;20279;-48
2021/10/16 01:22:11;;;;;;;8.63;1.60;;;9.20;99.90;;;;;;5099573;28;20245;-53
2021/10/16 01:24:38;;;;;;;8.97;1.27;;;9.20;99.90;;;;;;5097338;28;20226;-46
2021/10/16 01:27:06;;;;;;;4.10;1.40;;;9.20;99.90;;;;;;5102220;28;20201;-56
2021/10/16 01:29:35;;;;;;;4.53;1.77;;;9.20;99.90;;;;;;5095644;28;20217;-47
2021/10/16 01:32:04;;;;;;;6.90;1.77;;;9.20;99.90;;;;;;5097304;28;20201;-50
2021/10/16 01:34:30;;;;;;;7.53;1.90;;;9.10;99.90;;;;;;5092506;28;20213;-50
2021/10/16 01:36:57;;;;;;;5.47;1.30;;;9.10;99.90;;;;;;5103911;28;20213;-49
2021/10/16 01:39:30;;;;;;;7.67;1.30;;;9.10;99.90;;;;;;5105101;28;20219;-53
2021/10/16 01:41:57;;;;;;;6.33;1.60;;;9.10;99.90;;;;;;5098080;28;20747;-56
2021/10/16 01:44:24;;;;;;;7.40;1.40;;;9.10;99.90;;;;;;5092626;28;20225;-47
2021/10/16 01:46:52;;;;;;;9.23;1.47;;;9.00;99.90;;;;;;5102052;28;20534;-53
2021/10/16 01:49:22;;;;;;;8.63;1.50;;;9.00;99.90;;;;;;5088978;27;20196;-48
2021/10/16 01:51:54;;;;;;;5.57;1.23;;;8.90;99.90;;;;;;5101895;28;20192;-50
2021/10/16 01:54:21;;;;;;;7.53;1.77;;;8.90;99.90;;;;;;5098382;28;20213;-52
2021/10/16 01:56:59;;;;;;;4.77;1.47;;;8.90;99.90;;;;;;5094754;28;20217;-51
2021/10/16 01:59:28;;;;;;;4.97;2.23;;;8.90;99.90;;;;;;5099341;27;20254;-49
2021/10/16 02:02:13;;;;;;;6.03;1.73;;;8.90;99.90;;;;;;5092912;28;20285;-53
2021/10/16 02:04:47;;;;;;;4.67;1.70;;;8.80;99.90;;;;;;5089941;28;20220;-52
2021/10/16 02:07:14;;;;;;;8.17;1.70;;;8.80;99.90;;;;;;5098579;28;20201;-55
2021/10/16 02:09:41;;;;;;;4.97;1.33;;;8.80;99.90;;;;;;5102285;28;20201;-46
2021/10/16 02:12:09;;;;;;;6.20;1.93;;;8.80;99.90;;;;;;5090285;28;20681;-58
2021/10/16 02:14:40;;;;;;;6.60;2.00;;;8.80;99.90;;;;;;5102170;28;20591;-49
2021/10/16 02:17:10;;;;;;;6.20;1.67;;;8.80;99.90;;;;;;5097439;28;20209;-56
2021/10/16 02:19:37;;;;;;;5.23;1.73;;;8.80;99.90;;;;;;5088303;28;20210;-47
2021/10/16 02:22:04;;;;;;;7.23;1.60;;;8.80;99.90;;;;;;5099903;27;20200;-59
2021/10/16 02:24:31;;;;;;;4.00;1.20;;;8.80;99.90;;;;;;5100294;28;20209;-49
2021/10/16 02:26:58;;;;;;;5.47;1.67;;;8.80;99.90;;;;;;5101723;28;20623;-57
2021/10/16 02:29:26;;;;;;;6.47;1.60;;;8.80;99.90;;;;;;5095123;28;20193;-53
2021/10/16 02:32:00;;;;;;;3.13;1.30;;;8.80;99.90;;;;;;5099264;28;20665;-56
2021/10/16 02:34:27;;;;;;;11.93;1.97;;;8.80;99.90;;;;;;5091787;27;20217;-48
2021/10/16 02:36:58;;;;;;;6.67;1.80;;;8.80;99.90;;;;;;5105039;27;20209;-54
2021/10/16 02:39:25;;;;;;;7.67;1.43;;;8.80;99.90;;;;;;5104236;27;20273;-47
2021/10/16 02:41:55;;;;;;;6.63;1.93;;;8.80;99.90;;;;;;5106020;28;20201;-48
2021/10/16 02:44:23;;;;;;;5.93;1.80;;;8.80;99.90;;;;;;5093378;27;20350;-48
2021/10/16 02:46:51;;;;;;;7.43;1.90;;;8.80;99.90;;;;;;5105986;27;20204;-45
2021/10/16 02:49:19;;;;;;;3.73;1.50;;;8.80;99.90;;;;;;5091385;28;20197;-49
2021/10/16 02:51:46;;;;;;;7.30;2.17;;;8.70;99.90;;;;;;5092407;27;20274;-45
2021/10/16 02:54:13;;;;;;;5.20;2.20;;;8.70;99.90;;;;;;5102872;28;20258;-56
2021/10/16 02:56:41;;;;;;;5.83;2.00;;;8.70;99.90;;;;;;5109211;27;20209;-49
2021/10/16 02:59:12;;;;;;;6.50;2.00;;;8.80;99.90;;;;;;5096499;28;20233;-54
2021/10/16 03:01:48;;;;;;;7.93;2.80;;;8.80;99.90;;;;;;5105613;28;20235;-47
2021/10/16 03:04:17;;;;;;;8.80;2.27;;;8.80;99.90;;;;;;5093752;27;20244;-47
2021/10/16 03:06:44;;;;;;;8.37;2.27;;;8.80;99.90;;;;;;5101638;27;20233;-48
2021/10/16 03:09:16;;;;;;;3.77;1.83;;;8.80;99.90;;;;;;5102043;28;20193;-54
2021/10/16 03:11:44;;;;;;;7.27;2.00;;;8.80;99.90;;;;;;5105194;28;21012;-48
2021/10/16 03:14:11;;;;;;;7.07;1.97;;;8.80;99.90;;;;;;5090539;27;20234;-50
2021/10/16 03:16:43;;;;;;;3.47;1.70;;;8.70;99.90;;;;;;5105974;28;20666;-52
2021/10/16 03:19:10;;;;;;;5.70;1.80;;;8.70;99.90;;;;;;5101226;28;20233;-48
2021/10/16 03:21:41;;;;;;;6.03;2.10;;;8.70;99.90;;;;;;5107919;27;20546;-50
2021/10/16 03:24:18;;;;;;;4.93;1.97;;;8.60;99.90;;;;;;5105380;28;20224;-51
2021/10/16 03:26:45;;;;;;;9.00;2.20;;;8.60;99.90;;;;;;5109492;27;20228;-53
2021/10/16 03:29:12;;;;;;;5.80;1.90;;;8.60;99.90;;;;;;5101801;27;20251;-48
2021/10/16 03:31:39;;;;;;;5.20;2.00;;;8.50;99.90;;;;;;5105491;28;20554;-51
2021/10/16 03:34:06;;;;;;;4.97;1.80;;;8.50;99.90;;;;;;5109098;27;20216;-49
2021/10/16 03:36:33;;;;;;;4.63;2.07;;;8.50;99.90;;;;;;5104692;27;20198;-48
2021/10/16 03:39:01;;;;;;;12.00;2.10;;;8.50;99.90;;;;;;5091637;27;20563;-55
2021/10/16 03:41:28;;;;;;;8.50;2.20;;;8.50;99.90;;;;;;5101932;28;20181;-50
2021/10/16 03:43:55;;;;;;;6.50;2.43;;;8.50;99.90;;;;;;5104600;28;20250;-47
2021/10/16 03:46:21;;;;;;;9.47;2.37;;;8.50;99.90;;;;;;5096750;28;20210;-47
2021/10/16 03:48:48;;;;;;;9.67;2.50;;;8.50;99.90;;;;;;5105842;27;20208;-47
2021/10/16 03:51:15;;;;;;;11.00;3.30;;;8.50;99.90;;;;;;5093640;27;20233;-54
2021/10/16 03:53:41;;;;;;;8.17;2.90;;;8.50;99.90;;;;;;5087630;27;20229;-48
2021/10/16 03:56:09;;;;;;;6.43;2.63;;;8.50;99.90;;;;;;5104741;28;20213;-50
2021/10/16 03:58:36;;;;;;;5.80;2.40;;;8.40;99.90;;;;;;5108630;27;20224;-53
2021/10/16 04:01:03;;;;;;;9.13;2.37;;;8.40;99.90;;;;;;5101510;27;20217;-50
2021/10/16 04:03:31;;;;;;;7.17;2.40;;;8.40;99.90;;;;;;5107761;27;20274;-54
2021/10/16 04:05:59;;;;;;;5.43;2.30;;;8.40;99.90;;;;;;5115039;27;20194;-49
2021/10/16 04:08:25;;;;;;;6.37;2.20;;;8.30;99.90;;;;;;5099875;28;20209;-51
2021/10/16 04:10:52;;;;;;;11.93;2.47;;;8.30;99.90;;;;;;5094381;27;20228;-53
2021/10/16 04:13:20;;;;;;;7.60;2.30;;;8.40;99.90;;;;;;5103989;28;20182;-50
2021/10/16 04:15:51;;;;;;;7.60;2.17;;;8.30;99.90;;;;;;5102996;27;20300;-52
2021/10/16 04:18:18;;;;;;;9.33;2.40;;;8.30;99.90;;;;;;5101024;28;20307;-46
2021/10/16 04:20:46;;;;;;;7.90;2.57;;;8.30;99.90;;;;;;5103856;28;20205;-50
2021/10/16 04:23:12;;;;;;;7.47;2.50;;;8.30;99.90;;;;;;5088592;27;20197;-52
2021/10/16 04:25:39;;;;;;;10.17;2.37;;;8.30;99.90;;;;;;5090525;27;20682;-48
2021/10/16 04:28:06;;;;;;;11.43;2.70;;;8.40;99.90;;;;;;5101471;27;20201;-52
2021/10/16 04:30:47;;;;;;;4.67;2.00;;;8.30;99.90;;;;;;5094456;28;20224;-47
2021/10/16 04:33:14;;;;;;;6.33;2.37;;;8.30;99.90;;;;;;5096977;28;20786;-55
2021/10/16 04:35:41;;;;;;;3.40;2.13;;;8.30;99.90;;;;;;5113069;27;20197;-45
2021/10/16 04:38:08;;;;;;;4.13;2.17;;;8.30;99.90;;;;;;5095953;27;20222;-58
2021/10/16 04:40:35;;;;;;;7.23;2.63;;;8.30;99.90;;;;;;5092023;27;20214;-46
2021/10/16 04:43:05;;;;;;;5.90;2.23;;;8.30;99.90;;;;;;5090655;28;20678;-57
2021/10/16 04:45:35;;;;;;;8.30;2.57;;;8.20;99.90;;;;;;5099636;28;20198;-47
2021/10/16 04:48:06;;;;;;;9.27;1.90;;;8.20;99.90;;;;;;5094308;28;20283;-55
2021/10/16 04:50:33;;;;;;;7.37;2.10;;;8.20;99.90;;;;;;5096091;28;20263;-53
2021/10/16 04:53:00;;;;;;;5.90;2.20;;;8.20;99.90;;;;;;5095092;28;20201;-53
2021/10/16 04:55:31;;;;;;;6.73;1.80;;;8.20;99.90;;;;;;5101184;27;20224;-46
2021/10/16 04:57:57;;;;;;;14.93;3.03;;;8.20;99.90;;;;;;5090284;27;20300;-55
2021/10/16 05:00:33;;;;;;;8.47;1.90;;;8.20;99.90;;;;;;5101160;28;20291;-48
2021/10/16 05:03:00;;;;;;;4.13;2.03;;;8.20;99.90;;;;;;5095268;28;20283;-57
2021/10/16 05:05:29;;;;;;;5.80;1.60;;;8.20;99.90;;;;;;5102324;27;20233;-45
2021/10/16 05:07:59;;;;;;;4.63;1.70;;;8.20;99.90;;;;;;5098177;28;20548;-53
2021/10/16 05:10:26;;;;;;;6.77;2.13;;;8.20;99.90;;;;;;5099718;28;20204;-48
2021/10/16 05:12:53;;;;;;;5.33;2.40;;;8.20;99.90;;;;;;5088226;28;20319;-53
2021/10/16 05:15:19;;;;;;;4.77;1.50;;;8.20;99.90;;;;;;5099774;28;20350;-47
2021/10/16 05:17:46;;;;;;;4.93;1.87;;;8.20;99.90;;;;;;5098201;28;20678;-52
2021/10/16 05:20:18;;;;;;;4.90;1.80;;;8.10;99.90;;;;;;5099384;28;20240;-57
2021/10/16 05:22:52;;;;;;;4.17;1.97;;;8.20;99.90;;;;;;5105133;28;20725;-55
2021/10/16 05:25:19;;;;;;;3.83;2.20;;;8.20;99.90;;;;;;5092355;28;21010;-49
2021/10/16 05:27:49;;;;;;;7.73;2.67;;;8.10;99.90;;;;;;5093758;27;20202;-48
2021/10/16 05:30:16;;;;;;;5.80;2.30;;;8.10;99.90;;;;;;5095799;28;20198;-49
2021/10/16 05:32:43;;;;;;;4.23;1.80;;;8.10;99.90;;;;;;5095944;28;20209;-47
2021/10/16 05:35:14;;;;;;;9.30;2.20;;;8.10;99.90;;;;;;5091290;28;20818;-46
2021/10/16 05:37:41;;;;;;;6.10;2.00;;;8.10;99.90;;;;;;5101517;28;20213;-48
2021/10/16 05:40:10;;;;;;;3.67;2.10;;;8.10;99.90;;;;;;5090049;28;20203;-59
2021/10/16 05:42:37;;;;;;;5.13;1.63;;;8.00;99.90;;;;;;5086462;28;20220;-51
2021/10/16 05:45:05;;;;;;;4.93;2.20;;;7.90;99.90;;;;;;5099330;28;20209;-50
2021/10/16 05:47:32;;;;;;;6.17;2.10;;;7.90;99.90;;;;;;5095864;28;20262;-45
2021/10/16 05:49:59;;;;;;;8.03;1.87;;;7.90;99.90;;;;;;5082254;28;20201;-54
2021/10/16 05:52:27;;;;;;;5.97;1.70;;;7.90;99.90;;;;;;5097168;28;20949;-46
2021/10/16 05:54:54;;;;;;;6.63;2.27;;;7.90;99.90;;;;;;5101048;28;20225;-56
2021/10/16 05:57:23;;;;;;;7.83;2.03;;;7.80;99.90;;;;;;5079134;28;20233;-48
2021/10/16 05:59:50;;;;;;;6.40;2.10;;;7.80;99.90;;;;;;5104548;28;20221;-56
2021/10/16 06:02:17;;;;;;;3.83;1.83;;;7.80;99.90;;;;;;5099850;28;20211;-47
2021/10/16 06:04:48;;;;;;;5.03;2.00;;;7.80;99.90;;;;;;5101860;28;20716;-56
2021/10/16 06:07:14;;;;;;;4.90;1.73;;;7.70;99.90;;;;;;5102150;27;20211;-49
2021/10/16 06:09:42;;;;;;;8.07;1.90;;;7.70;99.90;;;;;;5106686;28;20296;-47
2021/10/16 06:12:10;;;;;;;6.63;1.73;;;7.90;99.90;;;;;;5098962;28;20342;-52
2021/10/16 06:14:38;;;;;;;5.33;1.73;;;7.70;99.90;;;;;;5098806;27;20232;-55
2021/10/16 06:17:20;;;;;;;5.87;1.77;;;7.70;99.90;;;;;;5104339;27;20212;-50
2021/10/16 06:19:47;;;;;;;9.00;2.17;;;7.70;99.90;;;;;;5101637;27;20300;-45
2021/10/16 06:22:14;;;;;;;5.50;1.90;;;7.90;99.90;;;;;;5085080;28;20193;-52
2021/10/16 06:24:43;;;;;;;9.03;2.40;;;7.60;99.90;;;;;;5106044;28;20661;-48
2021/10/16 06:27:10;;;;;;;10.57;2.20;;;7.70;99.90;;;;;;5096238;28;20287;-47
2021/10/16 06:29:38;;;;;;;5.87;1.73;;;7.90;99.90;;;;;;5089869;27;20201;-55
2021/10/16 06:32:05;;;;;;;4.53;1.97;;;7.90;99.90;;;;;;5107728;27;20220;-48
2021/10/16 06:34:33;;;;;;;7.33;2.63;;;7.90;99.90;;;;;;5104993;27;20244;-51
2021/10/16 06:37:00;;;;;;;3.70;2.00;;;8.00;99.90;;;;;;5094482;27;20250;-50
2021/10/16 06:39:27;;;;;;;5.07;2.07;;;8.10;99.90;;;;;;5100384;28;20594;-51
2021/10/16 06:41:59;;;;;;;4.73;2.00;;;8.10;99.90;;;;;;5090583;27;20663;-54
2021/10/16 06:44:42;;;;;;;3.57;1.80;;;8.10;99.90;;;;;;5095161;27;20740;-51
2021/10/16 06:47:45;;;;;;;7.67;2.20;;;8.30;99.90;;;;;;5094592;28;20280;-47
2021/10/16 06:50:29;;;;;;;6.13;2.10;;;8.10;99.90;;;;;;5115585;27;20552;-51
2021/10/16 06:52:56;;;;;;;6.67;2.47;;;8.10;99.90;;;;;;5095130;28;20205;-54
2021/10/16 06:55:22;;;;;;;3.83;2.10;;;8.20;99.90;;;;;;5099135;28;20224;-50
2021/10/16 06:57:49;;;;;;;2.80;2.13;;;8.20;99.90;;;;;;5104114;27;20561;-54
2021/10/16 07:00:17;;;;;;;6.63;2.50;;;8.40;99.90;;;;;;5095694;27;20908;-48
2021/10/16 07:02:44;;;;;;;7.97;2.03;;;8.20;99.90;;;;;;5091647;27;20432;-50
2021/10/16 07:05:14;;;;;;;8.43;2.47;;;8.40;99.90;;;;;;5097769;28;20334;-50
2021/10/16 07:07:41;;;;;;;3.90;1.80;;;8.50;99.90;;;;;;5094626;28;20578;-50
2021/10/16 07:10:08;;;;;;;6.73;2.00;;;8.40;99.90;;;;;;5093361;28;20186;-53
2021/10/16 07:12:36;;;;;;;7.27;2.30;;;8.50;99.90;;;;;;5100885;28;20757;-50
2021/10/16 07:15:03;;;;;;;8.50;2.37;;;8.30;99.90;;;;;;5090107;27;20222;-50
2021/10/16 07:17:31;;;;;;;5.87;1.63;;;8.60;99.90;;;;;;5089088;27;20204;-46
2021/10/16 07:19:58;;;;;;;11.10;2.30;;;8.50;99.90;;;;;;5103381;28;20209;-48
2021/10/16 07:22:25;;;;;;;7.63;2.00;;;8.40;99.90;;;;;;5103396;28;20842;-52
2021/10/16 07:24:52;;;;;;;4.70;1.93;;;8.40;99.90;;;;;;5095598;28;20221;-51
2021/10/16 07:27:18;;;;;;;4.57;2.07;;;8.60;99.90;;;;;;5103070;27;20192;-53
2021/10/16 07:29:45;;;;;;;2.90;1.83;;;8.60;99.90;;;;;;5095895;27;20209;-49
2021/10/16 07:32:13;;;;;;;5.37;2.07;;;8.70;99.90;;;;;;5079130;27;21354;-50
2021/10/16 07:34:41;;;;;;;7.37;2.10;;;8.80;99.90;;;;;;5105094;28;20766;-48
2021/10/16 07:37:08;;;;;;;5.47;1.60;;;8.90;99.90;;;;;;5096285;28;20741;-50
2021/10/16 07:39:35;;;;;;;6.07;2.10;;;8.90;99.90;;;;;;5098094;28;20571;-53
2021/10/16 07:42:02;;;;;;;4.17;2.00;;;8.90;99.90;;;;;;5102896;28;20194;-52
2021/10/16 07:44:28;;;;;;;6.40;1.87;;;8.80;99.90;;;;;;5098321;27;20713;-53
2021/10/16 07:46:55;;;;;;;8.03;2.03;;;8.90;99.90;;;;;;5087985;27;20661;-55
2021/10/16 07:49:21;;;;;;;5.67;2.10;;;9.00;99.90;;;;;;5085784;27;20200;-47
2021/10/16 07:51:49;;;;;;;5.00;2.30;;;9.00;99.90;;;;;;5099054;28;20197;-48
2021/10/16 07:54:17;;;;;;;6.97;1.80;;;8.80;99.90;;;;;;5103634;28;20467;-53
2021/10/16 07:56:44;;;;;;;4.93;1.90;;;;;;;;;;5100319;27;20341;-54
2021/10/16 07:59:11;;;;;;;4.13;1.50;;;9.20;99.90;;;;;;5093116;28;20200;-52
2021/10/16 08:01:37;;;;;;;6.30;1.60;;;9.20;99.90;;;;;;5094821;28;20221;-49
2021/10/16 08:04:04;;;;;;;7.50;2.03;;;9.20;99.90;;;;;;5092257;27;20225;-51
2021/10/16 08:06:31;;;;;;;4.87;1.97;;;9.30;99.90;;;;;;5105738;27;20666;-56
2021/10/16 08:09:01;;;;;;;5.30;1.50;;;9.20;99.90;;;;;;5097027;28;20576;-48
2021/10/16 08:11:45;;;;;;;3.17;1.77;;;9.30;99.90;;;;;;5102791;28;20205;-57
2021/10/16 08:14:12;;;;;;;2.47;1.50;;;9.30;99.90;;;;;;5094177;28;20510;-50
2021/10/16 08:16:39;;;;;;;6.47;1.67;;;9.30;99.90;;;;;;5090682;27;20331;-49
2021/10/16 08:19:05;;;;;;;2.70;1.30;;;9.40;99.90;;;;;;5093190;28;20221;-50
2021/10/16 08:21:34;;;;;;;6.47;2.03;;;9.40;99.90;;;;;;5087603;27;20308;-50
2021/10/16 08:24:02;;;;;;;5.47;1.33;;;9.50;99.90;;;;;;5101493;28;20220;-57
2021/10/16 08:26:29;;;;;;;4.23;1.43;;;9.60;99.90;;;;;;5102997;28;20189;-53
2021/10/16 08:28:55;;;;;;;1.70;1.33;;;9.60;99.90;;;;;;5093914;27;20197;-52
2021/10/16 08:31:22;;;;;;;4.20;1.13;;;9.60;99.90;;;;;;5103755;28;20196;-50
2021/10/16 08:33:49;;;;;;;4.77;1.20;;;9.80;99.90;;;;;;5092085;28;20228;-51
2021/10/16 08:36:15;;;;;;;5.73;2.10;;;9.90;99.90;;;;;;5085610;27;20224;-51
2021/10/16 08:38:44;;;;;;;3.80;1.30;;;10.00;99.90;;;;;;5103332;28;20747;-49
2021/10/16 08:41:13;;;;;;;5.57;1.40;;;10.10;99.90;;;;;;5092377;28;20904;-49
2021/10/16 08:43:40;;;;;;;4.73;1.47;;;10.10;99.90;;;;;;5092652;28;20236;-53
2021/10/16 08:46:07;;;;;;;3.17;1.50;;;10.20;99.90;;;;;;5091577;27;20206;-49
2021/10/16 08:48:34;;;;;;;4.57;1.40;;;10.30;99.90;;;;;;5083905;27;20212;-56
2021/10/16 08:51:01;;;;;;;3.90;1.27;;;10.30;99.90;;;;;;5086882;27;21301;-52
2021/10/16 08:53:28;;;;;;;7.10;1.93;;;10.40;99.90;;;;;;5092199;28;20193;-49
2021/10/16 08:55:55;;;;;;;1.87;1.50;;;10.40;99.90;;;;;;5099633;28;20197;-51
2021/10/16 08:58:23;;;;;;;3.87;1.20;;;10.50;99.90;;;;;;5101072;28;20213;-51
2021/10/16 09:00:52;;;;;;;6.97;1.40;;;10.50;99.90;;;;;;5093021;27;20186;-45
2021/10/16 09:03:21;;;;;;;6.67;1.20;;;10.60;99.90;;;;;;5104892;27;20272;-56
2021/10/16 09:06:11;;;;;;;6.30;1.77;;;10.60;99.90;;;;;;5092040;27;20197;-55
2021/10/16 09:08:45;;;;;;;5.87;1.83;;;10.70;99.90;;;;;;5086750;27;20254;-47
2021/10/16 09:11:20;;;;;;;2.93;1.40;;;10.70;99.90;;;;;;5106991;28;20274;-55
2021/10/16 09:13:51;;;;;;;6.60;1.40;;;10.70;99.90;;;;;;5104561;28;20213;-49
2021/10/16 09:16:22;;;;;;;3.03;1.20;;;10.70;99.90;;;;;;5107912;27;20211;-49
2021/10/16 09:18:51;;;;;;;4.23;1.60;;;10.80;99.90;;;;;;5099801;28;20322;-49
2021/10/16 09:21:18;;;;;;;2.97;1.43;;;10.80;99.90;;;;;;5096749;28;20199;-50
2021/10/16 09:23:45;;;;;;;6.53;1.30;;;10.80;99.90;;;;;;5082539;28;20225;-53
2021/10/16 09:26:12;;;;;;;5.57;1.07;;;10.80;99.90;;;;;;5096775;28;20205;-49
2021/10/16 09:28:39;;;;;;;4.63;1.50;;;10.80;99.90;;;;;;5099011;28;20212;-57
2021/10/16 09:31:11;;;;;;;2.13;1.50;;;10.80;99.90;;;;;;5092176;28;21016;-51
2021/10/16 09:33:47;;;;;;;3.37;1.50;;;10.80;99.90;;;;;;5104943;28;20267;-48
2021/10/16 09:36:23;;;;;;;3.50;1.10;;;10.90;99.90;;;;;;5089065;28;20201;-51
2021/10/16 09:38:50;;;;;;;6.17;1.40;;;11.00;99.90;;;;;;5084519;27;21186;-52
2021/10/16 09:41:25;;;;;;;6.03;1.60;;;11.00;99.90;;;;;;5105495;27;20197;-57
2021/10/16 09:43:52;;;;;;;6.43;1.50;;;11.10;99.90;;;;;;5097143;28;20227;-55
2021/10/16 09:46:21;;;;;;;3.10;1.80;;;11.10;99.90;;;;;;5099247;28;20196;-50
2021/10/16 09:48:48;;;;;;;3.67;1.23;;;11.10;99.90;;;;;;5094139;28;20193;-49
2021/10/16 09:51:15;;;;;;;4.90;1.33;;;11.20;99.90;;;;;;5103578;28;20691;-50
2021/10/16 09:53:44;;;;;;;9.00;1.47;;;11.30;99.90;;;;;;5092816;28;20620;-52
2021/10/16 09:56:11;;;;;;;3.97;1.50;;;11.40;99.90;;;;;;5090230;28;20296;-52
2021/10/16 09:58:38;;;;;;;4.57;1.30;;;11.40;99.90;;;;;;5101450;28;20205;-53
2021/10/16 10:01:05;;;;;;;2.53;1.10;;;11.50;99.90;;;;;;5100219;28;20236;-48
2021/10/16 10:03:34;;;;;;;3.37;0.90;;;11.60;99.90;;;;;;5079720;28;20573;-55
2021/10/16 10:06:01;;;;;;;5.20;1.87;;;11.60;99.90;;;;;;5099251;28;20318;-49
2021/10/16 10:08:28;;;;;;;4.33;1.40;;;11.70;99.90;;;;;;5095538;28;20674;-56
2021/10/16 10:10:56;;;;;;;1.67;1.00;;;11.80;99.90;;;;;;5084632;28;20784;-52
2021/10/16 10:13:26;;;;;;;5.37;1.13;;;11.70;99.90;;;;;;5097975;28;20197;-48
2021/10/16 10:15:54;;;;;;;2.43;1.00;;;11.70;99.90;;;;;;5084356;28;20535;-51
2021/10/16 10:21:08;;;;;;;2.43;1.27;;;11.60;99.90;;;;;;5094523;28;20720;-53
2021/10/16 10:23:35;;;;;;;6.87;1.40;;;11.60;99.90;;;;;;5102308;28;20690;-50
2021/10/16 10:26:25;;;;;;;2.60;1.43;;;11.60;99.90;;;;;;5103497;28;20201;-52
2021/10/16 10:28:55;;;;;;;4.50;1.40;;;11.70;99.90;;;;;;5092734;27;20282;-54
2021/10/16 10:31:57;;;;;;;2.50;1.00;;;11.70;99.90;;;;;;5102599;28;20208;-49
2021/10/16 10:34:29;;;;;;;3.33;1.30;;;11.70;99.90;;;;;;5094695;27;20229;-54
2021/10/16 10:37:01;;;;;;;4.07;1.83;;;11.80;99.90;;;;;;5097552;28;20213;-51
2021/10/16 10:39:49;;;;;;;4.93;1.50;;;11.80;99.90;;;;;;5101270;28;20296;-52
2021/10/16 10:42:50;;;;;;;2.33;1.33;;;11.90;99.90;;;;;;5097348;28;20559;-50
2021/10/16 10:45:32;;;;;;;5.47;1.90;;;12.00;99.90;;;;;;5092860;28;20256;-46
2021/10/16 10:48:02;;;;;;;2.80;1.40;;;12.10;99.90;;;;;;5091868;28;20216;-50
2021/10/16 10:50:50;;;;;;;4.83;2.23;;;12.10;99.90;;;;;;5082995;28;20194;-51
2021/10/16 10:53:27;;;;;;;13.17;4.63;;;12.10;99.90;;;;;;5093470;28;20205;-51
2021/10/16 10:55:56;;;;;;;2.63;1.50;;;12.10;99.90;;;;;;5103653;28;20189;-49
2021/10/16 10:58:23;;;;;;;4.00;1.90;;;12.10;99.90;;;;;;5097459;27;20208;-49
2021/10/16 11:00:52;;;;;;;3.60;1.27;;;12.10;99.90;;;;;;5099007;28;20988;-48
2021/10/16 11:03:44;;;;;;;4.23;1.33;;;12.10;99.90;;;;;;5100035;27;20197;-52
2021/10/16 11:06:22;;;;;;;3.77;1.50;;;12.20;99.90;;;;;;5084382;27;20266;-52
2021/10/16 11:08:50;;;;;;;6.03;1.30;;;12.30;99.90;;;;;;5102023;28;20256;-50
2021/10/16 11:11:17;;;;;;;1.73;1.33;;;12.30;99.90;;;;;;5092337;28;20198;-56
2021/10/16 11:13:44;;;;;;;1.80;1.33;;;12.30;99.90;;;;;;5097480;27;20228;-56
2021/10/16 11:16:11;;;;;;;4.90;1.67;;;12.30;99.90;;;;;;5096911;27;20205;-51
2021/10/16 11:18:38;;;;;;;1.67;1.10;;;12.40;99.90;;;;;;5097206;28;20213;-50
2021/10/16 11:21:07;;;;;;;3.20;1.67;;;12.40;99.90;;;;;;5091639;27;20312;-56
2021/10/16 11:23:37;;;;;;;5.33;1.33;;;12.50;99.90;;;;;;5097846;28;20221;-52
2021/10/16 11:26:07;;;;;;;3.07;1.17;;;12.60;99.90;;;;;;5102692;28;20787;-52
2021/10/16 11:28:35;;;;;;;6.33;1.63;;;12.60;99.90;;;;;;5091083;27;20311;-57
2021/10/16 11:31:02;;;;;;;6.13;1.20;;;12.60;99.90;;;;;;5103871;27;20194;-54
2021/10/16 11:33:31;;;;;;;2.00;1.37;;;12.60;99.90;;;;;;5101947;28;20495;-57
2021/10/16 11:36:00;;;;;;;3.00;1.23;;;12.70;99.90;;;;;;5107732;27;20683;-55
2021/10/16 11:38:29;;;;;;;2.40;1.27;;;12.70;99.90;;;;;;5105130;27;20200;-54
2021/10/16 11:40:57;;;;;;;4.30;1.03;;;12.70;99.90;;;;;;5106699;28;20224;-50
2021/10/16 11:43:26;;;;;;;6.53;1.10;;;12.70;99.90;;;;;;5102704;27;20189;-50
2021/10/16 11:45:55;;;;;;;2.63;0.87;;;12.70;99.90;;;;;;5100150;27;20215;-53
2021/10/16 11:48:23;;;;;;;5.93;1.43;;;12.60;99.90;;;;;;5088100;27;20278;-49
2021/10/16 11:50:53;;;;;;;1.27;0.70;;;12.70;99.90;;;;;;5096969;28;20254;-49
2021/10/16 11:53:21;;;;;;;4.67;1.27;;;12.80;99.90;;;;;;5088048;28;20200;-47
2021/10/16 11:55:50;;;;;;;4.47;1.23;;;12.80;99.90;;;;;;5103251;28;20213;-48
2021/10/16 11:58:19;;;;;;;2.73;1.33;;;12.80;99.90;;;;;;5101692;27;20197;-55
2021/10/16 12:00:49;;;;;;;2.37;1.33;;;12.80;99.90;;;;;;5094658;27;20241;-55
2021/10/16 12:03:17;;;;;;;3.27;1.20;;;12.80;99.90;;;;;;5102346;28;20634;-53
2021/10/16 12:05:46;;;;;;;3.67;1.00;;;12.80;99.90;;;;;;5113199;27;20197;-52
2021/10/16 12:08:19;;;;;;;2.50;0.90;;;12.90;99.90;;;;;;5088887;27;20252;-49
2021/10/16 12:10:51;;;;;;;4.43;1.50;;;13.00;99.90;;;;;;5098514;28;20276;-51
2021/10/16 12:13:34;;;;;;;5.43;1.23;;;13.00;99.90;;;;;;5087628;27;20197;-51
2021/10/16 12:16:13;;;;;;;5.13;1.10;;;12.90;99.90;;;;;;5087650;27;20204;-53
2021/10/16 12:18:49;;;;;;;8.73;1.53;;;12.80;99.90;;;;;;5100872;28;20279;-49
2021/10/16 12:21:26;;;;;;;4.57;1.30;;;12.70;99.90;;;;;;5089578;28;20218;-53
2021/10/16 12:23:53;;;;;;;5.20;1.10;;;12.60;99.90;;;;;;5095780;28;20714;-53
2021/10/16 12:26:22;;;;;;;4.83;0.90;;;12.60;99.90;;;;;;5085942;28;20193;-48
2021/10/16 12:28:50;;;;;;;3.53;0.93;;;12.50;99.90;;;;;;5096081;28;20227;-52
2021/10/16 12:31:18;;;;;;;2.77;1.37;;;12.50;99.90;;;;;;5086531;27;20205;-54
2021/10/16 12:34:04;;;;;;;4.50;1.47;;;12.50;99.90;;;;;;5101020;28;20320;-55
2021/10/16 12:36:32;;;;;;;2.27;1.17;;;12.50;99.90;;;;;;5088775;28;20193;-48
2021/10/16 12:38:59;;;;;;;6.67;1.43;;;12.40;99.90;;;;;;5097085;28;20209;-55
2021/10/16 12:41:32;;;;;;;2.13;0.90;;;12.30;99.90;;;;;;5088839;28;20209;-49
2021/10/16 12:44:16;;;;;;;5.37;1.87;;;12.30;99.90;;;;;;5100823;28;20300;-55
2021/10/16 12:46:45;;;;;;;4.23;1.00;;;12.20;99.90;;;;;;5091752;27;20201;-50
2021/10/16 12:49:33;;;;;;;6.47;1.50;;;12.20;99.90;;;;;;5093980;28;20250;-58
2021/10/16 12:52:01;;;;;;;3.33;1.30;;;12.20;99.90;;;;;;5097415;28;20193;-51
2021/10/16 12:54:45;;;;;;;5.03;1.43;;;12.20;99.90;;;;;;5094112;28;20217;-51
2021/10/16 12:57:12;;;;;;;2.63;0.97;;;12.30;99.90;;;;;;5087565;28;20680;-55
2021/10/16 12:59:40;;;;;;;6.17;1.33;;;12.30;99.90;;;;;;5098451;28;20561;-52
2021/10/16 13:02:09;;;;;;;2.43;1.20;;;12.30;99.90;;;;;;5092383;27;20201;-54
2021/10/16 13:04:47;;;;;;;2.70;1.13;;;12.30;99.90;;;;;;5103565;27;20221;-49
2021/10/16 13:07:14;;;;;;;1.57;0.90;;;12.30;99.90;;;;;;5103539;27;20196;-53